sensor_id;sensor_type;location;lat;lon;timestamp;P1;durP1;ratioP1;P2;durP2;ratioP2
43676;SDS011;29275;48.800;18.102;2024-01-07T00:02:19;4.88;;;2.33;;
43676;SDS011;29275;48.800;18.102;2024-01-07T00:05:26;5.00;;;2.25;;
43676;SDS011;29275;48.800;18.102;2024-01-07T00:08:30;5.60;;;1.95;;
43676;SDS011;29275;48.800;18.102;2024-01-07T00:11:33;3.67;;;2.33;;
43676;SDS011;29275;48.800;18.102;2024-01-07T00:14:35;3.25;;;1.70;;
43676;SDS011;29275;48.800;18.102;2024-01-07T00:17:38;5.18;;;2.35;;
43676;SDS011;29275;48.800;18.102;2024-01-07T00:20:41;5.07;;;2.40;;
43676;SDS011;29275;48.800;18.102;2024-01-07T00:23:46;3.65;;;1.63;;
43676;SDS011;29275;48.800;18.102;2024-01-07T00:26:49;4.15;;;1.52;;
43676;SDS011;29275;48.800;18.102;2024-01-07T00:29:52;3.90;;;2.10;;
43676;SDS011;29275;48.800;18.102;2024-01-07T00:32:55;3.22;;;2.00;;
43676;SDS011;29275;48.800;18.102;2024-01-07T00:35:58;4.00;;;1.35;;
43676;SDS011;29275;48.800;18.102;2024-01-07T00:39:01;4.20;;;2.13;;
43676;SDS011;29275;48.800;18.102;2024-01-07T00:42:05;2.97;;;1.75;;
43676;SDS011;29275;48.800;18.102;2024-01-07T00:45:08;3.70;;;1.30;;
43676;SDS011;29275;48.800;18.102;2024-01-07T00:48:13;3.35;;;1.60;;
43676;SDS011;29275;48.800;18.102;2024-01-07T00:51:17;3.00;;;1.38;;
43676;SDS011;29275;48.800;18.102;2024-01-07T00:54:19;3.33;;;1.10;;
43676;SDS011;29275;48.800;18.102;2024-01-07T00:57:22;3.53;;;1.35;;
43676;SDS011;29275;48.800;18.102;2024-01-07T01:00:25;2.88;;;1.33;;
43676;SDS011;29275;48.800;18.102;2024-01-07T01:03:29;4.28;;;1.73;;
43676;SDS011;29275;48.800;18.102;2024-01-07T01:06:32;3.22;;;1.52;;
43676;SDS011;29275;48.800;18.102;2024-01-07T01:09:35;2.55;;;1.48;;
43676;SDS011;29275;48.800;18.102;2024-01-07T01:12:38;3.08;;;1.60;;
43676;SDS011;29275;48.800;18.102;2024-01-07T01:15:40;3.78;;;1.88;;
43676;SDS011;29275;48.800;18.102;2024-01-07T01:18:43;6.47;;;2.40;;
43676;SDS011;29275;48.800;18.102;2024-01-07T01:21:46;2.88;;;1.42;;
43676;SDS011;29275;48.800;18.102;2024-01-07T01:24:49;3.05;;;1.45;;
43676;SDS011;29275;48.800;18.102;2024-01-07T01:27:53;2.88;;;1.50;;
43676;SDS011;29275;48.800;18.102;2024-01-07T01:30:56;2.97;;;1.63;;
43676;SDS011;29275;48.800;18.102;2024-01-07T01:34:00;3.65;;;1.40;;
43676;SDS011;29275;48.800;18.102;2024-01-07T01:37:03;3.40;;;1.42;;
43676;SDS011;29275;48.800;18.102;2024-01-07T01:40:06;3.70;;;2.28;;
43676;SDS011;29275;48.800;18.102;2024-01-07T01:43:09;2.45;;;1.67;;
43676;SDS011;29275;48.800;18.102;2024-01-07T01:46:13;4.18;;;1.63;;
43676;SDS011;29275;48.800;18.102;2024-01-07T01:49:16;2.20;;;1.15;;
43676;SDS011;29275;48.800;18.102;2024-01-07T01:52:19;2.08;;;1.00;;
43676;SDS011;29275;48.800;18.102;2024-01-07T01:55:22;3.13;;;0.93;;
43676;SDS011;29275;48.800;18.102;2024-01-07T01:58:25;2.47;;;1.42;;
43676;SDS011;29275;48.800;18.102;2024-01-07T02:01:29;3.35;;;1.40;;
43676;SDS011;29275;48.800;18.102;2024-01-07T02:04:32;3.35;;;1.10;;
43676;SDS011;29275;48.800;18.102;2024-01-07T02:07:35;1.83;;;1.00;;
43676;SDS011;29275;48.800;18.102;2024-01-07T02:10:38;3.47;;;0.90;;
43676;SDS011;29275;48.800;18.102;2024-01-07T02:13:44;3.03;;;1.00;;
43676;SDS011;29275;48.800;18.102;2024-01-07T02:16:47;1.90;;;1.00;;
43676;SDS011;29275;48.800;18.102;2024-01-07T02:19:50;2.20;;;1.02;;
43676;SDS011;29275;48.800;18.102;2024-01-07T02:22:53;3.10;;;0.90;;
43676;SDS011;29275;48.800;18.102;2024-01-07T02:25:56;3.13;;;0.90;;
43676;SDS011;29275;48.800;18.102;2024-01-07T02:28:59;2.78;;;1.20;;
43676;SDS011;29275;48.800;18.102;2024-01-07T02:32:02;2.88;;;0.93;;
43676;SDS011;29275;48.800;18.102;2024-01-07T02:35:05;6.47;;;1.27;;
43676;SDS011;29275;48.800;18.102;2024-01-07T02:38:08;2.03;;;0.80;;
43676;SDS011;29275;48.800;18.102;2024-01-07T02:41:11;3.83;;;0.90;;
43676;SDS011;29275;48.800;18.102;2024-01-07T02:44:14;2.78;;;0.82;;
43676;SDS011;29275;48.800;18.102;2024-01-07T02:47:17;1.85;;;0.80;;
43676;SDS011;29275;48.800;18.102;2024-01-07T02:50:20;2.05;;;0.70;;
43676;SDS011;29275;48.800;18.102;2024-01-07T02:53:23;2.15;;;1.00;;
43676;SDS011;29275;48.800;18.102;2024-01-07T02:56:27;2.15;;;1.00;;
43676;SDS011;29275;48.800;18.102;2024-01-07T02:59:29;2.35;;;0.93;;
43676;SDS011;29275;48.800;18.102;2024-01-07T03:02:32;2.13;;;1.02;;
43676;SDS011;29275;48.800;18.102;2024-01-07T03:05:35;1.23;;;0.60;;
43676;SDS011;29275;48.800;18.102;2024-01-07T03:08:38;2.05;;;0.90;;
43676;SDS011;29275;48.800;18.102;2024-01-07T03:11:41;3.90;;;1.00;;
43676;SDS011;29275;48.800;18.102;2024-01-07T03:14:44;1.88;;;0.80;;
43676;SDS011;29275;48.800;18.102;2024-01-07T03:17:47;2.35;;;0.80;;
43676;SDS011;29275;48.800;18.102;2024-01-07T03:20:50;1.15;;;0.50;;
43676;SDS011;29275;48.800;18.102;2024-01-07T03:23:53;2.22;;;1.02;;
43676;SDS011;29275;48.800;18.102;2024-01-07T03:26:56;2.22;;;0.88;;
43676;SDS011;29275;48.800;18.102;2024-01-07T03:29:59;3.85;;;1.20;;
43676;SDS011;29275;48.800;18.102;2024-01-07T03:33:02;1.65;;;0.65;;
43676;SDS011;29275;48.800;18.102;2024-01-07T03:36:08;2.05;;;0.90;;
43676;SDS011;29275;48.800;18.102;2024-01-07T03:39:12;2.03;;;1.00;;
43676;SDS011;29275;48.800;18.102;2024-01-07T03:42:14;5.10;;;2.58;;
43676;SDS011;29275;48.800;18.102;2024-01-07T03:45:18;4.05;;;1.08;;
43676;SDS011;29275;48.800;18.102;2024-01-07T03:48:20;5.15;;;1.50;;
43676;SDS011;29275;48.800;18.102;2024-01-07T03:51:23;2.03;;;0.90;;
43676;SDS011;29275;48.800;18.102;2024-01-07T03:54:26;1.63;;;0.80;;
43676;SDS011;29275;48.800;18.102;2024-01-07T03:57:29;1.85;;;0.93;;
43676;SDS011;29275;48.800;18.102;2024-01-07T04:00:32;2.83;;;1.73;;
43676;SDS011;29275;48.800;18.102;2024-01-07T04:03:37;1.92;;;1.13;;
43676;SDS011;29275;48.800;18.102;2024-01-07T04:06:40;3.90;;;1.10;;
43676;SDS011;29275;48.800;18.102;2024-01-07T04:09:43;2.92;;;1.00;;
43676;SDS011;29275;48.800;18.102;2024-01-07T04:12:47;3.22;;;0.88;;
43676;SDS011;29275;48.800;18.102;2024-01-07T04:15:50;2.67;;;0.80;;
43676;SDS011;29275;48.800;18.102;2024-01-07T04:18:53;1.98;;;0.90;;
43676;SDS011;29275;48.800;18.102;2024-01-07T04:21:56;1.58;;;0.77;;
43676;SDS011;29275;48.800;18.102;2024-01-07T04:24:59;1.70;;;0.95;;
43676;SDS011;29275;48.800;18.102;2024-01-07T04:28:02;2.22;;;1.00;;
43676;SDS011;29275;48.800;18.102;2024-01-07T04:31:05;2.25;;;0.98;;
43676;SDS011;29275;48.800;18.102;2024-01-07T04:34:08;3.10;;;1.27;;
43676;SDS011;29275;48.800;18.102;2024-01-07T04:37:11;2.80;;;1.20;;
43676;SDS011;29275;48.800;18.102;2024-01-07T04:40:14;2.90;;;1.20;;
43676;SDS011;29275;48.800;18.102;2024-01-07T04:43:18;2.28;;;0.93;;
43676;SDS011;29275;48.800;18.102;2024-01-07T04:46:21;2.97;;;1.20;;
43676;SDS011;29275;48.800;18.102;2024-01-07T04:49:24;4.38;;;1.30;;
43676;SDS011;29275;48.800;18.102;2024-01-07T04:52:27;3.17;;;1.50;;
43676;SDS011;29275;48.800;18.102;2024-01-07T04:55:30;3.42;;;1.50;;
43676;SDS011;29275;48.800;18.102;2024-01-07T04:58:33;2.55;;;1.17;;
43676;SDS011;29275;48.800;18.102;2024-01-07T05:01:36;3.38;;;1.65;;
43676;SDS011;29275;48.800;18.102;2024-01-07T05:04:39;3.42;;;1.38;;
43676;SDS011;29275;48.800;18.102;2024-01-07T05:07:42;2.13;;;1.00;;
43676;SDS011;29275;48.800;18.102;2024-01-07T05:10:45;2.72;;;1.35;;
43676;SDS011;29275;48.800;18.102;2024-01-07T05:13:48;2.42;;;1.15;;
43676;SDS011;29275;48.800;18.102;2024-01-07T05:16:55;3.15;;;1.45;;
43676;SDS011;29275;48.800;18.102;2024-01-07T05:19:58;2.72;;;1.13;;
43676;SDS011;29275;48.800;18.102;2024-01-07T05:23:01;2.15;;;1.30;;
43676;SDS011;29275;48.800;18.102;2024-01-07T05:26:04;4.30;;;1.73;;
43676;SDS011;29275;48.800;18.102;2024-01-07T05:29:07;3.97;;;1.52;;
43676;SDS011;29275;48.800;18.102;2024-01-07T05:32:10;3.25;;;1.58;;
43676;SDS011;29275;48.800;18.102;2024-01-07T05:35:13;5.10;;;1.50;;
43676;SDS011;29275;48.800;18.102;2024-01-07T05:38:16;3.00;;;1.70;;
43676;SDS011;29275;48.800;18.102;2024-01-07T05:41:19;2.75;;;1.45;;
43676;SDS011;29275;48.800;18.102;2024-01-07T05:44:22;2.90;;;1.58;;
43676;SDS011;29275;48.800;18.102;2024-01-07T05:47:29;2.90;;;1.55;;
43676;SDS011;29275;48.800;18.102;2024-01-07T05:50:32;3.83;;;1.50;;
43676;SDS011;29275;48.800;18.102;2024-01-07T05:53:36;3.58;;;1.85;;
43676;SDS011;29275;48.800;18.102;2024-01-07T05:56:39;3.05;;;1.55;;
43676;SDS011;29275;48.800;18.102;2024-01-07T05:59:45;3.13;;;1.90;;
43676;SDS011;29275;48.800;18.102;2024-01-07T06:02:51;3.70;;;1.52;;
43676;SDS011;29275;48.800;18.102;2024-01-07T06:05:54;3.67;;;1.70;;
43676;SDS011;29275;48.800;18.102;2024-01-07T06:08:57;5.65;;;2.05;;
43676;SDS011;29275;48.800;18.102;2024-01-07T06:12:00;4.25;;;2.03;;
43676;SDS011;29275;48.800;18.102;2024-01-07T06:15:03;4.32;;;2.13;;
43676;SDS011;29275;48.800;18.102;2024-01-07T06:18:07;5.03;;;2.55;;
43676;SDS011;29275;48.800;18.102;2024-01-07T06:21:11;2.95;;;1.70;;
43676;SDS011;29275;48.800;18.102;2024-01-07T06:24:13;2.88;;;1.65;;
43676;SDS011;29275;48.800;18.102;2024-01-07T06:27:18;5.78;;;1.98;;
43676;SDS011;29275;48.800;18.102;2024-01-07T06:30:21;3.50;;;1.98;;
43676;SDS011;29275;48.800;18.102;2024-01-07T06:33:24;5.85;;;1.95;;
43676;SDS011;29275;48.800;18.102;2024-01-07T06:36:27;4.05;;;1.90;;
43676;SDS011;29275;48.800;18.102;2024-01-07T06:39:30;4.03;;;2.30;;
43676;SDS011;29275;48.800;18.102;2024-01-07T06:42:34;3.67;;;1.83;;
43676;SDS011;29275;48.800;18.102;2024-01-07T06:45:37;3.53;;;2.00;;
43676;SDS011;29275;48.800;18.102;2024-01-07T06:48:40;5.75;;;2.13;;
43676;SDS011;29275;48.800;18.102;2024-01-07T06:51:49;4.57;;;1.95;;
43676;SDS011;29275;48.800;18.102;2024-01-07T06:54:52;4.70;;;2.15;;
43676;SDS011;29275;48.800;18.102;2024-01-07T06:57:55;4.45;;;1.83;;
43676;SDS011;29275;48.800;18.102;2024-01-07T07:00:59;4.88;;;1.88;;
43676;SDS011;29275;48.800;18.102;2024-01-07T07:04:02;4.03;;;2.08;;
43676;SDS011;29275;48.800;18.102;2024-01-07T07:07:05;3.92;;;2.38;;
43676;SDS011;29275;48.800;18.102;2024-01-07T07:10:08;4.10;;;2.00;;
43676;SDS011;29275;48.800;18.102;2024-01-07T07:13:12;4.10;;;2.03;;
43676;SDS011;29275;48.800;18.102;2024-01-07T07:16:14;4.90;;;2.42;;
43676;SDS011;29275;48.800;18.102;2024-01-07T07:19:18;3.45;;;2.17;;
43676;SDS011;29275;48.800;18.102;2024-01-07T07:22:21;4.65;;;2.25;;
43676;SDS011;29275;48.800;18.102;2024-01-07T07:25:24;3.58;;;2.08;;
43676;SDS011;29275;48.800;18.102;2024-01-07T07:28:27;4.40;;;2.17;;
43676;SDS011;29275;48.800;18.102;2024-01-07T07:31:30;5.40;;;2.28;;
43676;SDS011;29275;48.800;18.102;2024-01-07T07:34:33;4.40;;;2.17;;
43676;SDS011;29275;48.800;18.102;2024-01-07T07:37:36;4.35;;;2.10;;
43676;SDS011;29275;48.800;18.102;2024-01-07T07:40:40;6.65;;;2.58;;
43676;SDS011;29275;48.800;18.102;2024-01-07T07:43:44;4.20;;;1.88;;
43676;SDS011;29275;48.800;18.102;2024-01-07T07:46:47;5.10;;;3.63;;
43676;SDS011;29275;48.800;18.102;2024-01-07T07:49:50;3.75;;;2.33;;
43676;SDS011;29275;48.800;18.102;2024-01-07T07:52:53;5.03;;;2.50;;
43676;SDS011;29275;48.800;18.102;2024-01-07T07:55:56;4.85;;;2.83;;
43676;SDS011;29275;48.800;18.102;2024-01-07T07:58:59;4.20;;;2.75;;
43676;SDS011;29275;48.800;18.102;2024-01-07T08:02:02;3.47;;;2.33;;
43676;SDS011;29275;48.800;18.102;2024-01-07T08:05:06;6.95;;;2.65;;
43676;SDS011;29275;48.800;18.102;2024-01-07T08:08:09;5.70;;;2.50;;
43676;SDS011;29275;48.800;18.102;2024-01-07T08:11:12;4.20;;;2.63;;
43676;SDS011;29275;48.800;18.102;2024-01-07T08:14:15;4.65;;;2.38;;
43676;SDS011;29275;48.800;18.102;2024-01-07T08:17:18;4.50;;;1.95;;
43676;SDS011;29275;48.800;18.102;2024-01-07T08:20:21;7.88;;;2.50;;
43676;SDS011;29275;48.800;18.102;2024-01-07T08:23:24;3.28;;;1.98;;
43676;SDS011;29275;48.800;18.102;2024-01-07T08:26:28;4.90;;;2.85;;
43676;SDS011;29275;48.800;18.102;2024-01-07T08:29:31;5.05;;;2.80;;
43676;SDS011;29275;48.800;18.102;2024-01-07T08:32:34;5.13;;;2.92;;
43676;SDS011;29275;48.800;18.102;2024-01-07T08:35:37;7.80;;;2.72;;
43676;SDS011;29275;48.800;18.102;2024-01-07T08:38:41;5.93;;;2.42;;
43676;SDS011;29275;48.800;18.102;2024-01-07T08:41:44;9.82;;;2.40;;
43676;SDS011;29275;48.800;18.102;2024-01-07T08:44:47;4.57;;;2.47;;
43676;SDS011;29275;48.800;18.102;2024-01-07T08:47:50;5.18;;;3.22;;
43676;SDS011;29275;48.800;18.102;2024-01-07T08:50:54;4.13;;;2.38;;
43676;SDS011;29275;48.800;18.102;2024-01-07T08:53:57;4.25;;;2.25;;
43676;SDS011;29275;48.800;18.102;2024-01-07T08:57:00;5.00;;;2.83;;
43676;SDS011;29275;48.800;18.102;2024-01-07T09:00:04;5.30;;;3.15;;
43676;SDS011;29275;48.800;18.102;2024-01-07T09:03:10;5.83;;;2.77;;
43676;SDS011;29275;48.800;18.102;2024-01-07T09:06:13;4.45;;;2.22;;
43676;SDS011;29275;48.800;18.102;2024-01-07T09:09:16;4.55;;;2.25;;
43676;SDS011;29275;48.800;18.102;2024-01-07T09:12:19;4.43;;;2.58;;
43676;SDS011;29275;48.800;18.102;2024-01-07T09:15:22;5.13;;;3.15;;
43676;SDS011;29275;48.800;18.102;2024-01-07T09:18:25;7.10;;;3.72;;
43676;SDS011;29275;48.800;18.102;2024-01-07T09:21:29;6.35;;;3.80;;
43676;SDS011;29275;48.800;18.102;2024-01-07T09:24:32;4.88;;;3.08;;
43676;SDS011;29275;48.800;18.102;2024-01-07T09:27:35;6.68;;;2.60;;
43676;SDS011;29275;48.800;18.102;2024-01-07T09:30:38;5.07;;;2.33;;
43676;SDS011;29275;48.800;18.102;2024-01-07T09:33:41;5.18;;;2.17;;
43676;SDS011;29275;48.800;18.102;2024-01-07T09:36:45;6.20;;;2.83;;
43676;SDS011;29275;48.800;18.102;2024-01-07T09:39:48;6.10;;;3.25;;
43676;SDS011;29275;48.800;18.102;2024-01-07T09:42:52;4.32;;;2.53;;
43676;SDS011;29275;48.800;18.102;2024-01-07T09:45:55;4.95;;;2.47;;
43676;SDS011;29275;48.800;18.102;2024-01-07T09:48:59;5.65;;;3.15;;
43676;SDS011;29275;48.800;18.102;2024-01-07T09:52:02;4.63;;;2.72;;
43676;SDS011;29275;48.800;18.102;2024-01-07T09:55:07;6.55;;;3.28;;
43676;SDS011;29275;48.800;18.102;2024-01-07T09:58:12;4.95;;;2.65;;
43676;SDS011;29275;48.800;18.102;2024-01-07T10:01:15;6.70;;;2.97;;
43676;SDS011;29275;48.800;18.102;2024-01-07T10:04:20;5.68;;;2.95;;
43676;SDS011;29275;48.800;18.102;2024-01-07T10:07:23;4.50;;;2.38;;
43676;SDS011;29275;48.800;18.102;2024-01-07T10:10:28;5.25;;;3.15;;
43676;SDS011;29275;48.800;18.102;2024-01-07T10:13:31;7.07;;;3.00;;
43676;SDS011;29275;48.800;18.102;2024-01-07T10:16:34;6.97;;;2.80;;
43676;SDS011;29275;48.800;18.102;2024-01-07T10:19:38;5.80;;;2.92;;
43676;SDS011;29275;48.800;18.102;2024-01-07T10:22:41;3.65;;;2.40;;
43676;SDS011;29275;48.800;18.102;2024-01-07T10:25:50;4.80;;;2.97;;
43676;SDS011;29275;48.800;18.102;2024-01-07T10:28:53;8.25;;;4.93;;
43676;SDS011;29275;48.800;18.102;2024-01-07T10:32:00;5.53;;;3.80;;
43676;SDS011;29275;48.800;18.102;2024-01-07T10:35:12;5.85;;;2.80;;
43676;SDS011;29275;48.800;18.102;2024-01-07T10:38:21;3.92;;;2.83;;
43676;SDS011;29275;48.800;18.102;2024-01-07T10:41:26;5.03;;;2.45;;
43676;SDS011;29275;48.800;18.102;2024-01-07T10:44:32;5.72;;;2.78;;
43676;SDS011;29275;48.800;18.102;2024-01-07T10:47:36;4.38;;;2.85;;
43676;SDS011;29275;48.800;18.102;2024-01-07T10:50:39;7.85;;;2.70;;
43676;SDS011;29275;48.800;18.102;2024-01-07T10:53:42;4.60;;;2.28;;
43676;SDS011;29275;48.800;18.102;2024-01-07T10:56:48;4.40;;;2.40;;
43676;SDS011;29275;48.800;18.102;2024-01-07T10:59:51;4.28;;;2.67;;
43676;SDS011;29275;48.800;18.102;2024-01-07T11:03:02;4.53;;;2.60;;
43676;SDS011;29275;48.800;18.102;2024-01-07T11:06:19;6.00;;;3.15;;
43676;SDS011;29275;48.800;18.102;2024-01-07T11:09:33;4.85;;;2.88;;
43676;SDS011;29275;48.800;18.102;2024-01-07T11:12:39;6.50;;;3.20;;
43676;SDS011;29275;48.800;18.102;2024-01-07T11:18:52;5.75;;;3.08;;
43676;SDS011;29275;48.800;18.102;2024-01-07T11:25:31;8.32;;;3.78;;
43676;SDS011;29275;48.800;18.102;2024-01-07T11:28:42;5.60;;;3.38;;
43676;SDS011;29275;48.800;18.102;2024-01-07T11:31:45;8.10;;;3.28;;
43676;SDS011;29275;48.800;18.102;2024-01-07T11:34:53;7.43;;;3.38;;
43676;SDS011;29275;48.800;18.102;2024-01-07T11:37:57;6.22;;;3.25;;
43676;SDS011;29275;48.800;18.102;2024-01-07T11:41:00;6.35;;;3.08;;
43676;SDS011;29275;48.800;18.102;2024-01-07T11:44:03;7.47;;;3.55;;
43676;SDS011;29275;48.800;18.102;2024-01-07T11:47:08;7.07;;;3.33;;
43676;SDS011;29275;48.800;18.102;2024-01-07T11:50:11;7.20;;;3.05;;
43676;SDS011;29275;48.800;18.102;2024-01-07T11:53:14;5.88;;;3.10;;
43676;SDS011;29275;48.800;18.102;2024-01-07T11:56:18;7.82;;;3.65;;
43676;SDS011;29275;48.800;18.102;2024-01-07T11:59:22;7.35;;;3.65;;
43676;SDS011;29275;48.800;18.102;2024-01-07T12:02:25;7.25;;;4.03;;
43676;SDS011;29275;48.800;18.102;2024-01-07T12:05:32;6.13;;;3.55;;
43676;SDS011;29275;48.800;18.102;2024-01-07T12:08:36;7.40;;;3.70;;
43676;SDS011;29275;48.800;18.102;2024-01-07T12:11:39;8.23;;;3.70;;
43676;SDS011;29275;48.800;18.102;2024-01-07T12:14:46;6.78;;;3.65;;
43676;SDS011;29275;48.800;18.102;2024-01-07T12:17:58;5.53;;;3.33;;
43676;SDS011;29275;48.800;18.102;2024-01-07T12:21:04;5.97;;;2.97;;
43676;SDS011;29275;48.800;18.102;2024-01-07T12:24:09;6.93;;;3.30;;
43676;SDS011;29275;48.800;18.102;2024-01-07T12:27:12;6.45;;;2.88;;
43676;SDS011;29275;48.800;18.102;2024-01-07T12:30:18;9.00;;;5.10;;
43676;SDS011;29275;48.800;18.102;2024-01-07T12:33:22;6.00;;;3.20;;
43676;SDS011;29275;48.800;18.102;2024-01-07T12:36:25;6.47;;;3.58;;
43676;SDS011;29275;48.800;18.102;2024-01-07T12:39:29;6.80;;;3.45;;
43676;SDS011;29275;48.800;18.102;2024-01-07T12:42:32;7.90;;;4.28;;
43676;SDS011;29275;48.800;18.102;2024-01-07T12:45:35;6.68;;;3.72;;
43676;SDS011;29275;48.800;18.102;2024-01-07T12:48:38;7.72;;;3.72;;
43676;SDS011;29275;48.800;18.102;2024-01-07T12:51:42;6.97;;;4.00;;
43676;SDS011;29275;48.800;18.102;2024-01-07T12:54:45;7.40;;;3.65;;
43676;SDS011;29275;48.800;18.102;2024-01-07T12:57:49;8.13;;;3.92;;
43676;SDS011;29275;48.800;18.102;2024-01-07T13:00:52;10.73;;;5.10;;
43676;SDS011;29275;48.800;18.102;2024-01-07T13:03:58;7.60;;;3.50;;
43676;SDS011;29275;48.800;18.102;2024-01-07T13:07:02;8.10;;;4.13;;
43676;SDS011;29275;48.800;18.102;2024-01-07T13:10:05;11.55;;;4.95;;
43676;SDS011;29275;48.800;18.102;2024-01-07T13:13:09;8.68;;;4.40;;
43676;SDS011;29275;48.800;18.102;2024-01-07T13:16:17;7.30;;;3.67;;
43676;SDS011;29275;48.800;18.102;2024-01-07T13:19:21;9.07;;;3.90;;
43676;SDS011;29275;48.800;18.102;2024-01-07T13:22:25;5.95;;;3.72;;
43676;SDS011;29275;48.800;18.102;2024-01-07T13:25:28;6.05;;;3.30;;
43676;SDS011;29275;48.800;18.102;2024-01-07T13:28:31;5.45;;;3.38;;
43676;SDS011;29275;48.800;18.102;2024-01-07T13:31:35;7.07;;;4.10;;
43676;SDS011;29275;48.800;18.102;2024-01-07T13:34:38;9.35;;;4.80;;
43676;SDS011;29275;48.800;18.102;2024-01-07T13:37:41;11.40;;;5.25;;
43676;SDS011;29275;48.800;18.102;2024-01-07T13:40:45;6.75;;;4.13;;
43676;SDS011;29275;48.800;18.102;2024-01-07T13:43:48;14.80;;;6.85;;
43676;SDS011;29275;48.800;18.102;2024-01-07T13:46:52;9.90;;;4.25;;
43676;SDS011;29275;48.800;18.102;2024-01-07T13:49:56;6.32;;;3.88;;
43676;SDS011;29275;48.800;18.102;2024-01-07T13:52:59;14.88;;;7.55;;
43676;SDS011;29275;48.800;18.102;2024-01-07T13:56:02;22.88;;;11.68;;
43676;SDS011;29275;48.800;18.102;2024-01-07T13:59:06;10.77;;;4.90;;
43676;SDS011;29275;48.800;18.102;2024-01-07T14:02:09;11.15;;;5.43;;
43676;SDS011;29275;48.800;18.102;2024-01-07T14:05:13;9.48;;;4.95;;
43676;SDS011;29275;48.800;18.102;2024-01-07T14:08:16;8.50;;;5.13;;
43676;SDS011;29275;48.800;18.102;2024-01-07T14:11:19;8.68;;;4.85;;
43676;SDS011;29275;48.800;18.102;2024-01-07T14:14:23;5.93;;;3.95;;
43676;SDS011;29275;48.800;18.102;2024-01-07T14:17:27;9.00;;;4.30;;
43676;SDS011;29275;48.800;18.102;2024-01-07T14:20:30;6.68;;;3.22;;
43676;SDS011;29275;48.800;18.102;2024-01-07T14:23:33;7.95;;;4.18;;
43676;SDS011;29275;48.800;18.102;2024-01-07T14:26:36;7.68;;;4.10;;
43676;SDS011;29275;48.800;18.102;2024-01-07T14:29:39;8.07;;;3.83;;
43676;SDS011;29275;48.800;18.102;2024-01-07T14:32:42;11.07;;;4.65;;
43676;SDS011;29275;48.800;18.102;2024-01-07T14:35:47;9.57;;;5.55;;
43676;SDS011;29275;48.800;18.102;2024-01-07T14:38:50;9.00;;;4.43;;
43676;SDS011;29275;48.800;18.102;2024-01-07T14:41:54;7.38;;;3.40;;
43676;SDS011;29275;48.800;18.102;2024-01-07T14:44:57;7.55;;;4.30;;
43676;SDS011;29275;48.800;18.102;2024-01-07T14:48:00;7.90;;;4.10;;
43676;SDS011;29275;48.800;18.102;2024-01-07T14:51:04;11.00;;;5.82;;
43676;SDS011;29275;48.800;18.102;2024-01-07T14:54:07;7.22;;;4.65;;
43676;SDS011;29275;48.800;18.102;2024-01-07T14:57:11;10.25;;;5.47;;
43676;SDS011;29275;48.800;18.102;2024-01-07T15:00:14;11.15;;;4.22;;
43676;SDS011;29275;48.800;18.102;2024-01-07T15:03:18;12.32;;;5.70;;
43676;SDS011;29275;48.800;18.102;2024-01-07T15:06:25;14.50;;;5.63;;
43676;SDS011;29275;48.800;18.102;2024-01-07T15:09:29;11.43;;;5.22;;
43676;SDS011;29275;48.800;18.102;2024-01-07T15:12:32;11.70;;;5.65;;
43676;SDS011;29275;48.800;18.102;2024-01-07T15:15:42;12.75;;;6.65;;
43676;SDS011;29275;48.800;18.102;2024-01-07T15:18:45;20.88;;;10.65;;
43676;SDS011;29275;48.800;18.102;2024-01-07T15:21:48;19.40;;;9.13;;
43676;SDS011;29275;48.800;18.102;2024-01-07T15:24:52;12.00;;;6.20;;
43676;SDS011;29275;48.800;18.102;2024-01-07T15:27:56;9.45;;;5.65;;
43676;SDS011;29275;48.800;18.102;2024-01-07T15:30:59;10.02;;;4.72;;
43676;SDS011;29275;48.800;18.102;2024-01-07T15:34:03;9.63;;;5.35;;
43676;SDS011;29275;48.800;18.102;2024-01-07T15:37:06;13.85;;;6.68;;
43676;SDS011;29275;48.800;18.102;2024-01-07T15:40:09;10.85;;;4.93;;
43676;SDS011;29275;48.800;18.102;2024-01-07T15:43:13;17.25;;;7.93;;
43676;SDS011;29275;48.800;18.102;2024-01-07T15:46:18;16.35;;;8.05;;
43676;SDS011;29275;48.800;18.102;2024-01-07T15:49:22;7.80;;;4.50;;
43676;SDS011;29275;48.800;18.102;2024-01-07T15:52:25;11.95;;;5.20;;
43676;SDS011;29275;48.800;18.102;2024-01-07T15:55:30;13.63;;;6.38;;
43676;SDS011;29275;48.800;18.102;2024-01-07T15:58:33;10.93;;;5.97;;
43676;SDS011;29275;48.800;18.102;2024-01-07T16:01:37;9.85;;;5.55;;
43676;SDS011;29275;48.800;18.102;2024-01-07T16:04:40;12.15;;;5.35;;
43676;SDS011;29275;48.800;18.102;2024-01-07T16:07:43;9.25;;;5.20;;
43676;SDS011;29275;48.800;18.102;2024-01-07T16:10:47;9.32;;;5.70;;
43676;SDS011;29275;48.800;18.102;2024-01-07T16:13:49;15.60;;;6.53;;
43676;SDS011;29275;48.800;18.102;2024-01-07T16:16:53;10.50;;;5.70;;
43676;SDS011;29275;48.800;18.102;2024-01-07T16:19:56;15.45;;;6.13;;
43676;SDS011;29275;48.800;18.102;2024-01-07T16:23:00;14.15;;;6.47;;
43676;SDS011;29275;48.800;18.102;2024-01-07T16:26:03;13.02;;;5.10;;
43676;SDS011;29275;48.800;18.102;2024-01-07T16:29:08;10.73;;;5.65;;
43676;SDS011;29275;48.800;18.102;2024-01-07T16:32:11;12.32;;;6.22;;
43676;SDS011;29275;48.800;18.102;2024-01-07T16:35:15;9.70;;;5.35;;
43676;SDS011;29275;48.800;18.102;2024-01-07T16:38:18;13.20;;;6.22;;
43676;SDS011;29275;48.800;18.102;2024-01-07T16:41:22;13.27;;;6.57;;
43676;SDS011;29275;48.800;18.102;2024-01-07T16:44:25;13.02;;;6.50;;
43676;SDS011;29275;48.800;18.102;2024-01-07T16:47:28;10.55;;;6.13;;
43676;SDS011;29275;48.800;18.102;2024-01-07T16:50:32;11.85;;;6.40;;
43676;SDS011;29275;48.800;18.102;2024-01-07T16:53:35;12.38;;;6.32;;
43676;SDS011;29275;48.800;18.102;2024-01-07T16:56:39;13.68;;;7.10;;
43676;SDS011;29275;48.800;18.102;2024-01-07T16:59:42;10.43;;;6.28;;
43676;SDS011;29275;48.800;18.102;2024-01-07T17:02:47;11.70;;;6.05;;
43676;SDS011;29275;48.800;18.102;2024-01-07T17:05:51;15.48;;;8.25;;
43676;SDS011;29275;48.800;18.102;2024-01-07T17:08:54;14.77;;;7.63;;
43676;SDS011;29275;48.800;18.102;2024-01-07T17:11:57;15.30;;;7.40;;
43676;SDS011;29275;48.800;18.102;2024-01-07T17:15:02;11.85;;;6.32;;
43676;SDS011;29275;48.800;18.102;2024-01-07T17:18:05;12.73;;;6.72;;
43676;SDS011;29275;48.800;18.102;2024-01-07T17:21:08;12.52;;;6.90;;
43676;SDS011;29275;48.800;18.102;2024-01-07T17:24:12;12.65;;;6.60;;
43676;SDS011;29275;48.800;18.102;2024-01-07T17:27:14;12.43;;;6.10;;
43676;SDS011;29275;48.800;18.102;2024-01-07T17:30:17;19.48;;;8.65;;
43676;SDS011;29275;48.800;18.102;2024-01-07T17:33:21;16.67;;;7.97;;
43676;SDS011;29275;48.800;18.102;2024-01-07T17:36:26;16.27;;;8.80;;
43676;SDS011;29275;48.800;18.102;2024-01-07T17:39:29;17.55;;;7.20;;
43676;SDS011;29275;48.800;18.102;2024-01-07T17:42:37;18.95;;;9.70;;
43676;SDS011;29275;48.800;18.102;2024-01-07T17:45:40;13.13;;;7.85;;
43676;SDS011;29275;48.800;18.102;2024-01-07T17:48:44;12.30;;;7.40;;
43676;SDS011;29275;48.800;18.102;2024-01-07T17:51:47;14.38;;;7.47;;
43676;SDS011;29275;48.800;18.102;2024-01-07T17:54:50;18.15;;;7.53;;
43676;SDS011;29275;48.800;18.102;2024-01-07T17:57:53;12.38;;;8.18;;
43676;SDS011;29275;48.800;18.102;2024-01-07T18:00:56;16.75;;;7.88;;
43676;SDS011;29275;48.800;18.102;2024-01-07T18:04:00;17.90;;;7.78;;
43676;SDS011;29275;48.800;18.102;2024-01-07T18:07:03;14.25;;;7.72;;
43676;SDS011;29275;48.800;18.102;2024-01-07T18:10:06;17.42;;;8.23;;
43676;SDS011;29275;48.800;18.102;2024-01-07T18:13:13;15.45;;;7.65;;